Time;durP1;ratioP1;P1;durP2;ratioP2;P2;SDS_P1;SDS_P2;PMS_P1;PMS_P2;Temp;Humidity;BMP_temperature;BMP_pressure;BME280_temperature;BME280_humidity;BME280_pressure;Samples;Min_cycle;Max_cycle;Signal;HPM_P1;HPM_P2
2023/01/29 00:01:54;;;;;;;16.00;12.58;;;2.70;99.90;;;;;;1921975;74;21110;-89
2023/01/29 00:04:46;;;;;;;16.85;12.30;;;2.70;99.90;;;;;;1925793;74;21163;-89
2023/01/29 00:07:37;;;;;;;19.00;12.75;;;2.70;99.90;;;;;;1906983;74;21096;-88
2023/01/29 00:10:29;;;;;;;18.67;13.10;;;2.60;99.90;;;;;;1884167;74;21064;-88
2023/01/29 00:13:21;;;;;;;16.32;12.35;;;2.70;99.90;;;;;;1911144;74;21179;-89
2023/01/29 00:19:30;;;;;;;17.77;13.00;;;2.70;99.90;;;;;;1994328;71;22154;-89
2023/01/29 00:22:21;;;;;;;17.30;12.70;;;2.70;99.90;;;;;;1930767;73;21140;-89
2023/01/29 00:25:13;;;;;;;19.17;13.18;;;2.70;99.90;;;;;;2011220;70;21535;-88
2023/01/29 00:28:07;;;;;;;18.70;12.68;;;2.70;99.90;;;;;;1994658;70;21109;-88
2023/01/29 00:31:07;;;;;;;18.17;12.55;;;2.70;99.90;;;;;;2020390;70;21094;-88
2023/01/29 00:33:58;;;;;;;;;;;2.70;99.90;;;;;;1998188;72;21136;-88
2023/01/29 00:36:49;;;;;;;17.73;12.33;;;2.70;99.90;;;;;;1995375;72;20108;-90
2023/01/29 00:39:40;;;;;;;19.95;12.93;;;2.70;99.90;;;;;;2014005;70;21152;-89
2023/01/29 00:45:45;;;;;;;18.35;12.85;;;2.70;99.90;;;;;;2007296;70;21372;-89
2023/01/29 00:48:37;;;;;;;18.82;13.28;;;2.70;99.90;;;;;;2007451;70;21062;-88
2023/01/29 00:51:29;;;;;;;18.60;12.63;;;2.60;99.90;;;;;;2007566;70;21038;-88
2023/01/29 00:54:20;;;;;;;17.30;12.20;;;2.60;99.90;;;;;;2013039;70;21082;-88
2023/01/29 00:57:12;;;;;;;17.98;12.33;;;2.60;99.90;;;;;;1995565;72;21101;-89
2023/01/29 01:00:05;;;;;;;16.77;12.60;;;2.70;99.90;;;;;;2002826;70;21061;-88
2023/01/29 01:03:06;;;;;;;18.00;13.03;;;2.70;99.90;;;;;;2030320;70;21132;-88
2023/01/29 01:06:09;;;;;;;18.45;13.43;;;2.80;99.90;;;;;;2018199;70;21050;-89
2023/01/29 01:12:14;;;;;;;19.73;14.28;;;2.80;99.90;;;;;;2031534;70;21534;-90
2023/01/29 01:15:08;;;;;;;21.02;13.50;;;2.70;99.90;;;;;;1995142;70;21073;-89
2023/01/29 01:18:01;;;;;;;19.05;13.90;;;2.70;99.90;;;;;;2003775;70;21079;-89
2023/01/29 01:20:58;;;;;;;18.92;13.80;;;2.70;99.90;;;;;;2035925;70;21524;-89
2023/01/29 01:23:51;;;;;;;18.70;13.20;;;2.70;99.90;;;;;;2026303;70;21033;-89
2023/01/29 01:26:44;;;;;;;20.10;13.72;;;2.70;99.90;;;;;;2002650;72;21041;-88
2023/01/29 01:29:43;;;;;;;18.42;13.25;;;2.70;99.90;;;;;;2002406;71;21484;-88
2023/01/29 01:32:32;;;;;;;19.07;14.10;;;2.70;99.90;;;;;;2034364;70;21064;-88
2023/01/29 01:35:24;;;;;;;17.15;12.70;;;2.70;99.90;;;;;;2036095;70;21094;-88
2023/01/29 01:38:16;;;;;;;17.10;12.47;;;2.70;99.90;;;;;;2022458;70;21069;-88
2023/01/29 01:41:08;;;;;;;19.70;13.43;;;2.70;99.90;;;;;;2016599;70;21130;-88
2023/01/29 01:44:02;;;;;;;18.45;13.05;;;2.70;99.90;;;;;;2013654;70;21069;-89
2023/01/29 01:49:40;;;;;;;18.70;13.32;;;2.70;99.90;;;;;;1953752;72;22419;-89
2023/01/29 01:52:33;;;;;;;18.62;13.32;;;2.70;99.90;;;;;;1898915;75;21107;-89
2023/01/29 01:55:27;;;;;;;17.32;12.63;;;2.70;99.90;;;;;;1896723;75;21122;-89
2023/01/29 01:58:23;;;;;;;20.02;13.53;;;2.70;99.90;;;;;;1890466;75;21164;-89
2023/01/29 02:01:15;;;;;;;19.45;13.20;;;2.70;99.90;;;;;;1884619;76;21076;-89
2023/01/29 02:10:33;;;;;;;19.85;13.62;;;2.60;99.90;;;;;;1916941;75;21183;-87
2023/01/29 02:13:24;;;;;;;23.10;14.35;;;2.60;99.90;;;;;;1896154;75;21121;-89
2023/01/29 02:16:16;;;;;;;20.80;14.18;;;2.60;99.90;;;;;;1895020;75;21175;-88
2023/01/29 02:22:08;;;;;;;22.22;14.58;;;2.70;99.90;;;;;;1959999;72;22273;-89
2023/01/29 02:25:24;;;;;;;20.43;13.50;;;2.70;99.90;;;;;;1932338;73;21063;-88
2023/01/29 02:28:33;;;;;;;19.50;13.53;;;2.70;99.90;;;;;;1932612;73;21143;-90
2023/01/29 02:31:26;;;;;;;;;;;2.60;99.90;;;;;;1954201;73;21098;-88
2023/01/29 02:37:07;;;;;;;18.95;13.58;;;2.70;99.90;;;;;;1958197;72;22260;-89
2023/01/29 02:40:03;;;;;;;16.80;12.63;;;2.70;99.90;;;;;;1897319;75;21117;-88
2023/01/29 02:43:02;;;;;;;21.93;14.78;;;2.70;99.90;;;;;;1901171;75;21063;-88
2023/01/29 02:46:01;;;;;;;19.25;13.18;;;2.70;99.90;;;;;;1884558;76;21091;-88
2023/01/29 02:48:57;;;;;;;20.00;13.55;;;2.70;99.90;;;;;;1907773;75;21158;-88
2023/01/29 02:51:52;;;;;;;17.52;13.13;;;2.70;99.90;;;;;;1911611;75;21106;-89
2023/01/29 02:54:47;;;;;;;20.27;14.10;;;2.70;99.90;;;;;;1895288;75;21075;-88
2023/01/29 02:57:41;;;;;;;19.95;14.63;;;2.70;99.90;;;;;;1902088;75;21091;-88
2023/01/29 03:00:36;;;;;;;18.05;13.28;;;2.70;99.90;;;;;;1904584;75;21690;-89
2023/01/29 03:03:31;;;;;;;21.75;15.53;;;2.70;99.90;;;;;;1913971;75;21114;-89
2023/01/29 03:06:27;;;;;;;19.00;13.32;;;2.80;99.90;;;;;;1892073;75;21169;-89
2023/01/29 03:09:22;;;;;;;19.75;14.20;;;2.80;99.90;;;;;;1905804;75;21153;-88
2023/01/29 03:12:27;;;;;;;22.13;14.45;;;2.70;99.90;;;;;;1900834;75;21097;-88
2023/01/29 03:15:15;;;;;;;19.52;13.32;;;2.70;99.90;;;;;;1897561;75;21180;-88
2023/01/29 03:18:11;;;;;;;21.50;14.15;;;2.70;99.90;;;;;;1918130;75;21166;-88
2023/01/29 03:21:49;;;;;;;19.85;13.98;;;2.70;99.90;;;;;;1891543;75;21118;-89
2023/01/29 03:33:38;;;;;;;21.77;15.35;;;2.60;99.90;;;;;;1903974;75;21055;-89
2023/01/29 03:36:36;;;;;;;21.40;15.10;;;2.60;99.90;;;;;;1902484;74;21090;-89
2023/01/29 03:39:29;;;;;;;20.85;14.90;;;2.60;99.90;;;;;;1896298;75;21160;-88
2023/01/29 03:42:53;;;;;;;21.90;14.73;;;2.60;99.90;;;;;;1888806;75;21105;-88
2023/01/29 03:48:35;;;;;;;20.80;14.73;;;2.60;99.90;;;;;;1953375;72;22316;-89
2023/01/29 03:51:30;;;;;;;20.85;15.25;;;2.60;99.90;;;;;;1919757;74;21090;-88
2023/01/29 03:54:26;;;;;;;22.10;15.25;;;2.60;99.90;;;;;;1900112;75;21098;-89
2023/01/29 03:57:31;;;;;;;22.15;15.35;;;2.60;99.90;;;;;;1898205;75;21083;-89
2023/01/29 04:00:26;;;;;;;23.50;15.70;;;2.60;99.90;;;;;;1917293;75;21114;-88
2023/01/29 04:03:21;;;;;;;;;;;2.60;99.90;;;;;;1897727;75;21086;-88
2023/01/29 04:06:19;;;;;;;21.97;15.30;;;2.60;99.90;;;;;;1895169;75;20232;-88
2023/01/29 04:09:22;;;;;;;23.00;15.30;;;2.50;99.90;;;;;;1895725;75;21115;-88
2023/01/29 04:12:17;;;;;;;19.40;15.32;;;2.50;99.90;;;;;;1884766;76;21118;-88
2023/01/29 04:15:14;;;;;;;23.12;15.08;;;2.50;99.90;;;;;;1897983;75;21118;-88
2023/01/29 04:18:07;;;;;;;23.55;16.02;;;2.50;99.90;;;;;;1886200;75;21114;-87
2023/01/29 04:21:06;;;;;;;22.67;15.03;;;2.50;99.90;;;;;;1906584;75;21118;-88
2023/01/29 04:23:58;;;;;;;21.57;15.13;;;2.50;99.90;;;;;;1906395;75;21086;-88
2023/01/29 04:27:00;;;;;;;23.30;14.87;;;2.50;99.90;;;;;;1902164;75;21566;-89
2023/01/29 04:30:09;;;;;;;19.85;14.30;;;2.50;99.90;;;;;;1898475;75;21160;-88
2023/01/29 04:33:10;;;;;;;20.40;14.80;;;2.50;99.90;;;;;;1884787;76;21144;-90
2023/01/29 04:36:16;;;;;;;21.10;14.80;;;2.40;99.90;;;;;;1894807;75;21095;-88
2023/01/29 04:39:12;;;;;;;19.57;13.30;;;2.40;99.90;;;;;;1909558;75;21121;-88
2023/01/29 04:42:08;;;;;;;20.20;12.85;;;2.40;99.90;;;;;;1884309;75;21100;-88
2023/01/29 04:45:05;;;;;;;20.50;13.98;;;2.40;99.90;;;;;;1905905;75;21051;-88
2023/01/29 04:48:02;;;;;;;18.37;13.60;;;2.30;99.90;;;;;;1892276;75;21155;-89
2023/01/29 04:50:58;;;;;;;20.05;13.35;;;2.30;99.90;;;;;;1876507;76;21127;-88
2023/01/29 04:53:58;;;;;;;20.75;13.68;;;2.30;99.90;;;;;;1912696;74;21124;-87
2023/01/29 04:59:36;;;;;;;20.48;13.80;;;2.30;99.90;;;;;;1953348;72;22251;-89
2023/01/29 05:02:29;;;;;;;18.50;13.38;;;2.30;99.90;;;;;;1832354;77;21156;-88
2023/01/29 05:05:22;;;;;;;20.37;13.70;;;2.30;99.90;;;;;;1896969;75;21082;-88
2023/01/29 05:08:17;;;;;;;18.95;12.75;;;2.30;99.90;;;;;;1894983;75;21055;-88
2023/01/29 05:11:09;;;;;;;18.85;13.25;;;2.40;99.90;;;;;;1914308;75;21106;-88
2023/01/29 05:14:04;;;;;;;23.50;13.60;;;2.30;99.90;;;;;;1885250;76;21080;-88
2023/01/29 05:17:00;;;;;;;19.90;13.30;;;2.40;99.90;;;;;;1900878;75;21347;-88
2023/01/29 05:19:51;;;;;;;18.90;12.15;;;2.30;99.90;;;;;;1896083;75;21083;-88
2023/01/29 05:22:44;;;;;;;17.55;11.63;;;2.20;99.90;;;;;;1911728;75;21126;-89
2023/01/29 05:25:36;;;;;;;15.45;11.88;;;2.20;99.90;;;;;;1906851;75;21087;-89
2023/01/29 05:28:27;;;;;;;17.25;11.28;;;2.20;99.90;;;;;;1901762;75;21227;-88
2023/01/29 05:31:19;;;;;;;19.02;11.10;;;2.20;99.90;;;;;;1896003;75;21102;-88
2023/01/29 05:34:11;;;;;;;20.37;11.90;;;2.20;99.90;;;;;;1895411;75;21063;-88
2023/01/29 05:37:02;;;;;;;18.45;12.15;;;2.20;99.90;;;;;;1895602;75;21059;-88
2023/01/29 05:39:54;;;;;;;15.53;11.28;;;2.20;99.90;;;;;;1898811;75;21130;-88
2023/01/29 05:42:45;;;;;;;15.30;10.48;;;2.20;99.90;;;;;;1897743;75;21142;-88
2023/01/29 05:45:37;;;;;;;16.02;11.35;;;2.20;99.90;;;;;;1895332;75;21180;-89
2023/01/29 05:48:30;;;;;;;15.55;10.88;;;2.20;99.90;;;;;;1892166;75;21100;-89
2023/01/29 05:51:22;;;;;;;18.98;12.82;;;2.20;99.90;;;;;;1904640;75;21094;-88
2023/01/29 05:54:14;;;;;;;15.45;11.18;;;2.20;99.90;;;;;;1902206;75;21113;-88
2023/01/29 05:57:06;;;;;;;16.17;10.53;;;2.20;99.90;;;;;;1884617;76;21055;-89
2023/01/29 05:59:57;;;;;;;17.27;10.58;;;2.10;99.90;;;;;;1901331;74;21089;-88
2023/01/29 06:02:51;;;;;;;15.38;10.82;;;2.10;99.90;;;;;;1912465;74;21153;-89
2023/01/29 06:05:43;;;;;;;17.32;11.10;;;2.10;99.90;;;;;;1900396;75;21142;-89
2023/01/29 06:08:34;;;;;;;18.55;10.65;;;2.10;99.90;;;;;;1869634;76;21093;-87
2023/01/29 06:11:26;;;;;;;18.95;11.15;;;2.00;99.90;;;;;;1925952;74;21095;-90
2023/01/29 06:14:18;;;;;;;18.27;10.60;;;2.10;99.90;;;;;;1921923;74;21159;-89
2023/01/29 06:17:12;;;;;;;18.07;10.78;;;2.20;99.90;;;;;;1917280;74;21059;-89
2023/01/29 06:20:05;;;;;;;17.37;11.40;;;2.20;99.90;;;;;;1899502;75;21097;-89
2023/01/29 06:22:56;;;;;;;16.90;10.78;;;2.20;99.90;;;;;;1922620;74;21109;-88
2023/01/29 06:25:57;;;;;;;16.82;10.38;;;2.10;99.90;;;;;;1858110;76;21105;-89
2023/01/29 06:28:51;;;;;;;17.77;10.35;;;2.10;99.90;;;;;;1857433;77;21109;-89
2023/01/29 06:31:43;;;;;;;15.45;10.43;;;2.10;99.90;;;;;;1915514;74;21113;-90
2023/01/29 06:34:36;;;;;;;16.55;10.43;;;2.10;99.90;;;;;;1857559;77;21100;-89
2023/01/29 06:37:29;;;;;;;15.75;10.45;;;2.20;99.90;;;;;;1928997;74;21094;-89
2023/01/29 06:40:21;;;;;;;18.07;11.40;;;2.00;99.90;;;;;;1909678;74;21066;-89
2023/01/29 06:43:12;;;;;;;15.65;10.78;;;2.10;99.90;;;;;;1932795;74;21296;-88
2023/01/29 06:46:04;;;;;;;15.18;10.72;;;2.00;99.90;;;;;;1913235;74;21110;-88
2023/01/29 06:49:00;;;;;;;18.80;10.78;;;2.00;99.90;;;;;;1910370;74;21204;-88
2023/01/29 06:51:51;;;;;;;17.02;10.45;;;2.00;99.90;;;;;;1910455;74;21182;-88
2023/01/29 06:54:48;;;;;;;16.90;10.40;;;2.00;99.90;;;;;;1932372;74;21149;-89
2023/01/29 06:57:39;;;;;;;17.90;10.72;;;2.00;99.90;;;;;;1917878;74;21165;-88
2023/01/29 07:00:31;;;;;;;15.30;10.98;;;2.00;99.90;;;;;;1899984;75;21203;-88
2023/01/29 07:03:23;;;;;;;15.65;10.50;;;2.00;99.90;;;;;;1899797;75;21109;-88
2023/01/29 07:06:15;;;;;;;18.37;10.40;;;2.00;99.90;;;;;;1901692;74;21062;-88
2023/01/29 07:09:06;;;;;;;15.83;10.28;;;2.00;99.90;;;;;;1913649;74;21094;-89
2023/01/29 07:11:58;;;;;;;14.00;9.83;;;2.00;99.90;;;;;;1899741;75;21116;-88
2023/01/29 07:14:50;;;;;;;17.48;10.75;;;1.90;99.90;;;;;;1899568;74;21162;-88
2023/01/29 07:17:42;;;;;;;19.62;10.18;;;2.00;99.90;;;;;;1925002;74;21099;-90
2023/01/29 07:20:33;;;;;;;14.40;10.00;;;2.00;99.90;;;;;;1932379;74;21135;-90
2023/01/29 07:23:25;;;;;;;17.15;11.03;;;2.00;99.90;;;;;;1915695;74;21062;-89
2023/01/29 07:26:17;;;;;;;15.30;9.80;;;2.00;99.90;;;;;;1899669;74;21114;-88
2023/01/29 07:29:09;;;;;;;18.37;10.78;;;2.10;99.90;;;;;;1921438;74;21100;-88
2023/01/29 07:32:01;;;;;;;13.85;9.65;;;2.10;99.90;;;;;;1921551;74;21141;-88
2023/01/29 07:34:53;;;;;;;16.60;10.35;;;2.10;99.90;;;;;;1916819;74;21163;-89
2023/01/29 07:37:45;;;;;;;16.17;10.50;;;2.00;99.90;;;;;;1911664;74;21050;-89
2023/01/29 07:40:37;;;;;;;16.32;10.40;;;1.90;99.90;;;;;;1902951;74;21105;-88
2023/01/29 07:43:29;;;;;;;14.55;10.53;;;1.90;99.90;;;;;;1923641;74;21167;-88
2023/01/29 07:46:20;;;;;;;17.05;10.53;;;1.90;99.90;;;;;;1913288;74;21138;-88
2023/01/29 07:49:12;;;;;;;13.72;9.35;;;1.90;99.90;;;;;;1857397;77;21134;-88
2023/01/29 07:52:04;;;;;;;13.93;9.83;;;1.90;99.90;;;;;;1921514;74;21142;-89
2023/01/29 07:54:57;;;;;;;14.28;9.93;;;1.90;99.90;;;;;;1924817;74;21192;-88
2023/01/29 07:57:51;;;;;;;13.78;10.23;;;1.90;99.90;;;;;;1912583;74;21098;-89
2023/01/29 08:00:42;;;;;;;15.70;10.25;;;1.90;99.90;;;;;;1869556;76;21216;-89
2023/01/29 08:03:34;;;;;;;15.55;9.58;;;1.90;99.90;;;;;;1850009;76;21121;-89
2023/01/29 08:06:27;;;;;;;13.30;9.18;;;1.90;99.90;;;;;;1905675;75;21260;-88
2023/01/29 08:09:18;;;;;;;13.83;9.40;;;1.90;99.90;;;;;;1905633;75;21106;-88
2023/01/29 08:12:10;;;;;;;15.25;10.23;;;1.90;99.90;;;;;;1900372;75;21055;-88
2023/01/29 08:15:02;;;;;;;13.03;9.05;;;1.90;99.90;;;;;;1895111;75;21176;-88
2023/01/29 08:17:55;;;;;;;15.72;9.73;;;2.00;99.90;;;;;;1888896;75;21110;-88
2023/01/29 08:20:48;;;;;;;15.58;10.13;;;2.00;99.90;;;;;;1885034;75;21205;-89
2023/01/29 08:23:40;;;;;;;15.60;10.20;;;2.10;99.90;;;;;;1898597;75;21208;-89
2023/01/29 08:26:31;;;;;;;14.55;9.95;;;2.10;99.90;;;;;;1897017;75;21196;-89
2023/01/29 08:29:22;;;;;;;16.35;10.03;;;2.20;99.90;;;;;;1894838;75;21512;-89
2023/01/29 08:32:14;;;;;;;16.80;9.88;;;2.20;99.90;;;;;;1894838;75;21194;-87
2023/01/29 08:35:07;;;;;;;15.38;9.78;;;2.20;99.90;;;;;;1897572;75;21077;-88
2023/01/29 08:37:59;;;;;;;14.58;10.10;;;2.20;99.90;;;;;;1898935;75;21102;-88
2023/01/29 08:40:51;;;;;;;17.50;10.15;;;2.20;99.90;;;;;;1907163;75;21166;-88
2023/01/29 08:43:43;;;;;;;13.72;9.20;;;2.20;99.90;;;;;;1910478;75;21390;-91
2023/01/29 08:46:35;;;;;;;16.05;10.13;;;2.20;99.90;;;;;;1916671;75;21098;-89
2023/01/29 08:49:27;;;;;;;16.52;9.95;;;2.20;99.90;;;;;;1883584;76;21106;-89
2023/01/29 08:52:19;;;;;;;17.32;9.73;;;2.20;99.90;;;;;;1895281;75;21177;-89
2023/01/29 08:55:11;;;;;;;15.45;9.45;;;2.20;99.90;;;;;;1888936;75;21055;-88
2023/01/29 08:58:04;;;;;;;14.38;9.35;;;2.30;99.90;;;;;;1906444;75;21155;-89
2023/01/29 09:00:56;;;;;;;15.55;9.48;;;2.30;99.90;;;;;;1883979;76;21129;-88
2023/01/29 09:03:49;;;;;;;16.52;10.25;;;2.30;99.90;;;;;;1896716;75;21117;-88
2023/01/29 09:06:41;;;;;;;17.15;10.20;;;2.30;99.90;;;;;;1899270;75;21063;-89
2023/01/29 09:09:34;;;;;;;15.28;9.55;;;2.30;99.90;;;;;;1891930;75;21101;-89
2023/01/29 09:12:25;;;;;;;14.70;9.08;;;2.30;99.90;;;;;;1903399;75;21113;-90
2023/01/29 09:15:17;;;;;;;14.07;9.50;;;2.40;99.90;;;;;;1902452;75;21125;-88
2023/01/29 09:18:12;;;;;;;13.45;9.55;;;2.40;99.90;;;;;;1906299;75;21118;-87
2023/01/29 09:21:04;;;;;;;14.65;9.63;;;2.40;99.90;;;;;;1889097;75;21179;-89
2023/01/29 09:23:55;;;;;;;14.73;9.08;;;2.50;99.90;;;;;;1916527;75;21121;-89
2023/01/29 09:29:28;;;;;;;14.38;9.60;;;2.60;99.90;;;;;;1944570;72;22276;-89
2023/01/29 09:32:23;;;;;;;18.12;10.35;;;2.60;99.90;;;;;;1906447;75;21185;-89
2023/01/29 09:35:16;;;;;;;20.23;11.35;;;2.70;99.90;;;;;;1869847;76;21596;-88
2023/01/29 09:38:08;;;;;;;16.15;10.75;;;2.70;99.90;;;;;;1900525;75;21122;-88
2023/01/29 09:41:05;;;;;;;14.60;9.40;;;2.90;99.90;;;;;;1896565;75;21168;-88
2023/01/29 09:44:00;;;;;;;15.72;9.85;;;2.90;99.90;;;;;;1909749;75;21100;-88
2023/01/29 09:46:54;;;;;;;15.53;10.95;;;3.00;99.90;;;;;;1906815;75;21047;-88
2023/01/29 09:49:49;;;;;;;21.15;12.93;;;3.10;99.90;;;;;;1905330;75;21117;-88
2023/01/29 09:52:45;;;;;;;17.25;12.05;;;3.10;99.90;;;;;;1884498;76;21078;-89
2023/01/29 09:55:39;;;;;;;17.85;11.88;;;3.10;99.90;;;;;;1896650;75;21174;-90
2023/01/29 09:58:34;;;;;;;21.77;14.05;;;3.20;99.90;;;;;;1909511;75;21224;-88
2023/01/29 10:01:30;;;;;;;17.62;12.88;;;3.30;99.90;;;;;;1906389;75;21158;-88
2023/01/29 10:04:39;;;;;;;21.23;13.88;;;3.40;99.90;;;;;;1884505;76;21136;-89
2023/01/29 10:07:55;;;;;;;18.73;13.08;;;3.50;99.90;;;;;;1884330;76;21051;-88
2023/01/29 10:10:51;;;;;;;20.40;13.18;;;3.60;99.90;;;;;;1903907;75;21219;-88
2023/01/29 10:13:46;;;;;;;19.87;14.35;;;3.70;99.90;;;;;;1902072;75;21204;-88
2023/01/29 10:16:44;;;;;;;23.20;14.05;;;3.70;99.90;;;;;;1884558;76;21102;-89
2023/01/29 10:20:21;;;;;;;19.02;14.03;;;3.80;99.90;;;;;;1891411;75;21067;-89
2023/01/29 10:23:21;;;;;;;18.92;14.03;;;4.00;99.90;;;;;;1892985;75;21115;-89
2023/01/29 10:26:13;;;;;;;23.57;15.43;;;4.00;99.90;;;;;;1895579;75;21260;-88
2023/01/29 10:29:07;;;;;;;20.75;15.15;;;4.00;99.90;;;;;;1906715;74;21209;-89
2023/01/29 10:32:03;;;;;;;23.12;14.80;;;4.10;99.90;;;;;;1884523;76;21123;-88
2023/01/29 10:35:01;;;;;;;21.40;15.35;;;4.20;99.90;;;;;;1884417;76;21219;-88
2023/01/29 10:37:54;;;;;;;19.95;14.33;;;4.30;99.90;;;;;;1884360;75;21095;-88
2023/01/29 10:40:49;;;;;;;21.50;14.80;;;4.30;99.90;;;;;;1874785;75;21250;-88
2023/01/29 10:43:45;;;;;;;17.50;13.18;;;4.40;99.90;;;;;;1886288;75;21067;-88
2023/01/29 10:46:49;;;;;;;19.82;13.65;;;4.50;99.90;;;;;;1884430;75;21169;-89
2023/01/29 10:49:56;;;;;;;25.10;13.70;;;4.50;99.90;;;;;;1901615;75;21161;-88
2023/01/29 10:53:15;;;;;;;21.00;13.43;;;4.60;99.90;;;;;;1904432;75;21107;-89
2023/01/29 10:56:13;;;;;;;20.12;14.13;;;4.70;99.90;;;;;;1883537;75;21076;-88
2023/01/29 10:59:10;;;;;;;17.52;12.88;;;4.90;99.90;;;;;;1899467;75;21140;-88
2023/01/29 11:02:02;;;;;;;18.82;11.63;;;5.00;99.90;;;;;;1910849;74;21063;-88
2023/01/29 11:04:54;;;;;;;14.40;10.68;;;5.00;99.90;;;;;;1899409;75;21114;-89
2023/01/29 11:07:47;;;;;;;15.43;11.15;;;4.90;99.90;;;;;;1882661;75;21074;-89
2023/01/29 11:10:42;;;;;;;16.45;10.32;;;4.80;99.90;;;;;;1904304;75;21095;-88
2023/01/29 11:16:20;;;;;;;17.20;11.22;;;4.90;99.90;;;;;;1945047;72;22149;-89
2023/01/29 11:19:16;;;;;;;16.32;10.68;;;5.00;99.90;;;;;;1917514;75;21750;-88
2023/01/29 11:25:12;;;;;;;17.40;10.65;;;5.10;99.90;;;;;;1955246;72;22259;-88
2023/01/29 11:28:05;;;;;;;18.40;10.88;;;5.10;99.90;;;;;;1897804;75;21236;-90
2023/01/29 11:30:59;;;;;;;17.12;11.53;;;5.20;99.90;;;;;;1887612;75;21153;-90
2023/01/29 11:33:53;;;;;;;15.93;10.65;;;5.20;99.90;;;;;;1884586;76;21115;-88
2023/01/29 11:36:45;;;;;;;15.23;10.78;;;5.30;99.90;;;;;;1884423;76;21174;-89
2023/01/29 11:39:40;;;;;;;15.63;10.50;;;5.40;99.90;;;;;;1884300;76;21574;-89
2023/01/29 11:42:33;;;;;;;15.10;10.45;;;5.20;99.90;;;;;;1895337;75;21059;-89
2023/01/29 11:45:32;;;;;;;12.98;9.98;;;5.10;99.90;;;;;;1895003;75;21188;-89
2023/01/29 11:48:26;;;;;;;16.23;11.03;;;5.20;99.90;;;;;;1893366;75;21106;-88
2023/01/29 11:51:25;;;;;;;14.65;10.48;;;5.30;99.90;;;;;;1885603;76;21132;-90
2023/01/29 11:54:19;;;;;;;15.68;11.03;;;5.20;99.90;;;;;;1900278;75;21149;-89
2023/01/29 11:57:24;;;;;;;15.20;10.35;;;5.10;99.90;;;;;;1884743;76;21078;-89
2023/01/29 12:00:20;;;;;;;15.95;10.80;;;5.10;99.90;;;;;;1915587;75;21090;-88
2023/01/29 12:03:17;;;;;;;16.30;10.90;;;5.10;99.90;;;;;;1895275;75;21127;-89
2023/01/29 12:06:13;;;;;;;13.93;10.38;;;5.20;99.90;;;;;;1894894;75;21094;-89
2023/01/29 12:11:51;;;;;;;16.45;10.50;;;5.10;99.90;;;;;;1964971;72;22135;-89
2023/01/29 12:14:44;;;;;;;15.83;11.08;;;5.10;99.90;;;;;;1912362;74;21127;-88
2023/01/29 12:17:38;;;;;;;15.88;10.40;;;5.10;99.90;;;;;;1914446;74;21107;-90
2023/01/29 12:20:34;;;;;;;15.05;10.32;;;5.20;99.90;;;;;;1924989;74;21059;-88
2023/01/29 12:23:29;;;;;;;16.27;10.72;;;5.20;99.90;;;;;;1920399;74;21187;-88
2023/01/29 12:26:24;;;;;;;16.17;10.98;;;5.30;99.90;;;;;;1916117;74;21059;-89
2023/01/29 12:29:28;;;;;;;14.90;10.70;;;5.40;99.90;;;;;;1909132;74;21121;-89
2023/01/29 12:32:27;;;;;;;15.40;11.30;;;5.40;99.90;;;;;;1908577;74;21127;-88
2023/01/29 12:35:23;;;;;;;16.95;10.50;;;5.40;99.90;;;;;;1914892;74;21140;-88
2023/01/29 12:38:18;;;;;;;15.00;10.20;;;5.50;99.90;;;;;;1904903;75;21096;-88
2023/01/29 12:41:16;;;;;;;15.98;10.15;;;5.60;99.90;;;;;;1904925;75;21145;-90
2023/01/29 12:44:11;;;;;;;15.08;11.05;;;5.50;99.90;;;;;;1904954;74;21118;-88
2023/01/29 12:47:06;;;;;;;13.22;10.38;;;5.50;99.90;;;;;;1905038;75;21091;-88
2023/01/29 12:50:03;;;;;;;16.07;12.25;;;5.40;99.90;;;;;;1906103;74;21172;-88
2023/01/29 12:52:58;;;;;;;17.77;10.68;;;5.30;99.90;;;;;;1919425;74;21122;-90
2023/01/29 12:55:54;;;;;;;14.10;10.65;;;5.30;99.90;;;;;;1869075;77;21089;-88
2023/01/29 12:58:49;;;;;;;13.98;10.25;;;5.30;99.90;;;;;;1938591;74;21184;-89
2023/01/29 13:01:43;;;;;;;19.23;10.95;;;5.30;99.90;;;;;;1921583;74;21154;-88
2023/01/29 13:04:40;;;;;;;14.47;10.38;;;5.30;99.90;;;;;;1929299;74;21121;-88
2023/01/29 13:07:36;;;;;;;14.55;10.60;;;5.30;99.90;;;;;;1917745;74;21106;-88
2023/01/29 13:10:31;;;;;;;14.68;10.40;;;5.20;99.90;;;;;;1904669;75;21180;-88
2023/01/29 13:13:27;;;;;;;15.55;11.15;;;5.30;99.90;;;;;;1904631;75;21296;-89
2023/01/29 13:16:21;;;;;;;13.78;10.88;;;5.30;99.90;;;;;;1926886;74;21114;-88
2023/01/29 13:19:21;;;;;;;14.58;10.93;;;5.40;99.90;;;;;;1907265;74;21365;-88
2023/01/29 13:22:18;;;;;;;14.98;10.68;;;5.50;99.90;;;;;;1915936;74;21091;-88
2023/01/29 13:25:16;;;;;;;16.25;10.48;;;5.60;99.90;;;;;;1905183;75;21099;-88
2023/01/29 13:28:08;;;;;;;16.50;11.63;;;5.60;99.90;;;;;;1904458;75;21182;-89
2023/01/29 13:31:18;;;;;;;15.83;12.07;;;5.60;99.90;;;;;;1935895;74;21115;-88
2023/01/29 13:34:14;;;;;;;14.40;10.30;;;5.70;99.90;;;;;;1929290;74;21176;-88
2023/01/29 13:37:11;;;;;;;13.62;11.00;;;5.60;99.90;;;;;;1904158;75;21096;-88
2023/01/29 13:40:05;;;;;;;18.85;10.98;;;5.50;99.90;;;;;;1904324;75;21175;-89
2023/01/29 13:42:58;;;;;;;14.45;10.15;;;5.60;99.90;;;;;;1904157;75;21143;-89
2023/01/29 13:45:53;;;;;;;13.28;9.33;;;5.60;99.90;;;;;;1916822;74;21110;-89
2023/01/29 13:48:47;;;;;;;15.35;10.80;;;5.60;99.90;;;;;;1907924;74;21104;-88
2023/01/29 13:51:40;;;;;;;15.95;11.93;;;5.80;99.90;;;;;;1904410;75;21152;-88
2023/01/29 13:54:32;;;;;;;18.62;11.40;;;5.80;99.90;;;;;;1904595;75;21547;-87
2023/01/29 13:57:56;;;;;;;16.10;10.75;;;5.70;99.90;;;;;;1904589;75;21161;-87
2023/01/29 14:00:51;;;;;;;14.65;11.45;;;5.60;99.90;;;;;;1904314;75;21091;-89
2023/01/29 14:03:50;;;;;;;13.65;10.45;;;5.50;99.90;;;;;;1904337;75;21130;-89
2023/01/29 14:06:51;;;;;;;15.93;10.53;;;5.50;99.90;;;;;;1904401;75;21114;-88
2023/01/29 14:10:07;;;;;;;13.10;10.20;;;5.50;99.90;;;;;;1904018;75;21150;-89
2023/01/29 14:13:27;;;;;;;17.35;10.72;;;5.60;99.90;;;;;;1851382;76;21134;-89
2023/01/29 14:16:38;;;;;;;14.50;10.18;;;5.70;99.90;;;;;;1910771;74;21102;-87
2023/01/29 14:19:34;;;;;;;12.65;9.95;;;5.90;99.90;;;;;;1888759;75;21115;-89
2023/01/29 14:22:32;;;;;;;14.55;9.78;;;5.90;99.90;;;;;;1909696;75;21118;-89
2023/01/29 14:25:40;;;;;;;15.00;10.35;;;5.90;99.90;;;;;;1933354;74;21142;-89
2023/01/29 14:28:35;;;;;;;;;;;5.90;99.90;;;;;;1935856;74;21592;-88
2023/01/29 14:31:43;;;;;;;12.05;9.60;;;6.00;99.90;;;;;;1911844;75;20187;-88
2023/01/29 14:34:46;;;;;;;14.38;9.53;;;5.80;99.90;;;;;;1909475;75;21178;-87
2023/01/29 14:37:44;;;;;;;12.70;10.03;;;5.80;99.90;;;;;;1946462;74;21106;-88
2023/01/29 14:40:40;;;;;;;14.23;10.25;;;5.70;99.90;;;;;;1918337;73;21069;-88
2023/01/29 14:43:38;;;;;;;13.78;9.63;;;5.80;99.90;;;;;;1866975;76;21104;-88
2023/01/29 14:46:45;;;;;;;12.15;9.33;;;5.90;99.90;;;;;;1932263;74;21103;-89
2023/01/29 14:49:56;;;;;;;12.90;9.33;;;5.90;99.90;;;;;;1912225;75;21188;-88
2023/01/29 14:52:56;;;;;;;10.72;8.73;;;5.70;99.90;;;;;;1930262;74;21167;-89
2023/01/29 14:55:55;;;;;;;11.95;9.08;;;5.80;99.90;;;;;;1913009;75;21106;-89
2023/01/29 14:58:52;;;;;;;12.03;8.83;;;5.60;99.90;;;;;;1876153;73;21151;-88
2023/01/29 15:01:54;;;;;;;13.25;10.08;;;5.70;99.90;;;;;;1916107;73;21089;-88
2023/01/29 15:04:52;;;;;;;13.08;10.00;;;5.70;99.90;;;;;;1866810;76;21143;-88
2023/01/29 15:10:31;;;;;;;14.20;10.60;;;5.70;99.90;;;;;;1976172;72;22209;-89
2023/01/29 15:13:26;;;;;;;13.18;10.08;;;5.70;99.90;;;;;;1917017;73;21072;-89
2023/01/29 15:16:21;;;;;;;13.18;9.85;;;5.60;99.90;;;;;;1917418;75;21106;-88
2023/01/29 15:22:11;;;;;;;17.85;12.00;;;5.30;99.90;;;;;;1955924;72;22202;-88
2023/01/29 15:25:11;;;;;;;13.80;10.50;;;5.30;99.90;;;;;;1904523;75;21160;-88
2023/01/29 15:28:09;;;;;;;16.15;10.28;;;5.20;99.90;;;;;;1917491;74;21176;-89
2023/01/29 15:31:02;;;;;;;14.33;10.55;;;5.40;99.90;;;;;;1907148;74;21156;-88
2023/01/29 15:33:56;;;;;;;15.53;11.20;;;5.10;99.90;;;;;;1905070;75;21094;-88
2023/01/29 15:36:49;;;;;;;12.28;9.75;;;4.80;99.90;;;;;;1905779;75;21128;-88
2023/01/29 15:39:45;;;;;;;12.50;9.45;;;4.70;99.90;;;;;;1905153;75;21111;-88
2023/01/29 15:42:47;;;;;;;12.95;9.98;;;4.70;99.90;;;;;;1904946;75;21063;-87
2023/01/29 15:45:43;;;;;;;14.05;9.88;;;4.60;99.90;;;;;;1904735;75;21068;-88
2023/01/29 15:48:39;;;;;;;13.58;10.18;;;4.50;99.90;;;;;;1904771;75;21104;-88
2023/01/29 15:51:31;;;;;;;15.00;10.65;;;4.40;99.90;;;;;;1927050;74;21134;-89
2023/01/29 15:54:24;;;;;;;14.95;10.78;;;4.40;99.90;;;;;;1904957;75;21094;-88
2023/01/29 15:57:21;;;;;;;16.80;11.25;;;4.30;99.90;;;;;;1904980;75;21103;-88
2023/01/29 16:00:27;;;;;;;15.58;11.10;;;4.20;99.90;;;;;;1905293;75;21104;-88
2023/01/29 16:03:23;;;;;;;14.35;10.58;;;4.20;99.90;;;;;;1905113;75;21550;-88